Terminal Aerodrome Forecast
Issued by NWS Louisville, KY

Home | Current Version | Previous Version | Text Only | Print | Product List | Glossary On
Versions: 1 2 3 4 5 6 7 8 9 10 11 12 13 14 15 16 17 18
677
FTUS43 KLMK 131720
TAFBWG
TAF
KBWG 131720Z 1318/1418 35005KT P6SM SKC
     FM140200 VRB03KT P6SM OVC150
     FM141300 12007KT P6SM -SN BKN040=

USA.gov is the U.S. government's official web portal to all federal, state and local government web resources and services.